sensor_id;sensor_type;location;lat;lon;timestamp;P1;durP1;ratioP1;P2;durP2;ratioP2
51525;SDS011;37611;51.794;21.590;2022-12-13T00:02:39;14.90;;;9.90;;
51525;SDS011;37611;51.794;21.590;2022-12-13T00:06:41;17.20;;;10.90;;
51525;SDS011;37611;51.794;21.590;2022-12-13T00:10:44;13.80;;;10.80;;
51525;SDS011;37611;51.794;21.590;2022-12-13T00:14:45;9.20;;;7.90;;
51525;SDS011;37611;51.794;21.590;2022-12-13T00:18:48;13.80;;;9.60;;
51525;SDS011;37611;51.794;21.590;2022-12-13T00:22:51;11.70;;;8.20;;
51525;SDS011;37611;51.794;21.590;2022-12-13T00:26:53;12.40;;;8.40;;
51525;SDS011;37611;51.794;21.590;2022-12-13T00:30:57;10.60;;;8.60;;
51525;SDS011;37611;51.794;21.590;2022-12-13T00:35:00;12.10;;;8.20;;
51525;SDS011;37611;51.794;21.590;2022-12-13T00:39:02;13.60;;;9.20;;
51525;SDS011;37611;51.794;21.590;2022-12-13T00:43:04;13.10;;;9.90;;
51525;SDS011;37611;51.794;21.590;2022-12-13T00:47:06;10.30;;;8.70;;
51525;SDS011;37611;51.794;21.590;2022-12-13T00:51:08;13.90;;;9.10;;
51525;SDS011;37611;51.794;21.590;2022-12-13T00:55:11;10.30;;;7.90;;
51525;SDS011;37611;51.794;21.590;2022-12-13T00:59:13;10.90;;;7.90;;
51525;SDS011;37611;51.794;21.590;2022-12-13T01:03:16;11.20;;;7.80;;
51525;SDS011;37611;51.794;21.590;2022-12-13T01:07:20;11.00;;;8.40;;
51525;SDS011;37611;51.794;21.590;2022-12-13T01:11:22;12.10;;;8.90;;
51525;SDS011;37611;51.794;21.590;2022-12-13T01:15:24;12.70;;;9.40;;
51525;SDS011;37611;51.794;21.590;2022-12-13T01:19:26;9.90;;;8.00;;
51525;SDS011;37611;51.794;21.590;2022-12-13T01:23:29;9.50;;;7.20;;
51525;SDS011;37611;51.794;21.590;2022-12-13T01:27:31;11.00;;;7.10;;
51525;SDS011;37611;51.794;21.590;2022-12-13T01:31:33;11.30;;;8.30;;
51525;SDS011;37611;51.794;21.590;2022-12-13T01:35:35;13.80;;;8.80;;
51525;SDS011;37611;51.794;21.590;2022-12-13T01:39:37;13.10;;;9.70;;
51525;SDS011;37611;51.794;21.590;2022-12-13T01:47:44;12.20;;;8.50;;
51525;SDS011;37611;51.794;21.590;2022-12-13T01:51:50;12.00;;;8.50;;
51525;SDS011;37611;51.794;21.590;2022-12-13T01:55:56;10.80;;;7.20;;
51525;SDS011;37611;51.794;21.590;2022-12-13T02:00:03;9.50;;;7.90;;
51525;SDS011;37611;51.794;21.590;2022-12-13T02:04:06;8.40;;;7.30;;
51525;SDS011;37611;51.794;21.590;2022-12-13T02:08:09;12.60;;;9.70;;
51525;SDS011;37611;51.794;21.590;2022-12-13T02:12:12;10.30;;;9.20;;
51525;SDS011;37611;51.794;21.590;2022-12-13T02:20:33;12.40;;;9.50;;
51525;SDS011;37611;51.794;21.590;2022-12-13T02:33:49;9.70;;;8.00;;
51525;SDS011;37611;51.794;21.590;2022-12-13T02:42:14;11.20;;;8.10;;
51525;SDS011;37611;51.794;21.590;2022-12-13T02:46:24;12.60;;;9.40;;
51525;SDS011;37611;51.794;21.590;2022-12-13T02:50:29;10.80;;;9.20;;
51525;SDS011;37611;51.794;21.590;2022-12-13T02:54:33;13.30;;;9.90;;
51525;SDS011;37611;51.794;21.590;2022-12-13T02:58:37;10.20;;;8.40;;
51525;SDS011;37611;51.794;21.590;2022-12-13T03:11:24;11.00;;;8.80;;
51525;SDS011;37611;51.794;21.590;2022-12-13T03:15:54;11.90;;;8.20;;
51525;SDS011;37611;51.794;21.590;2022-12-13T03:19:58;13.30;;;8.90;;
51525;SDS011;37611;51.794;21.590;2022-12-13T03:24:01;13.30;;;10.30;;
51525;SDS011;37611;51.794;21.590;2022-12-13T03:28:02;14.10;;;10.50;;
51525;SDS011;37611;51.794;21.590;2022-12-13T03:32:04;11.80;;;9.30;;
51525;SDS011;37611;51.794;21.590;2022-12-13T03:36:06;11.70;;;9.50;;
51525;SDS011;37611;51.794;21.590;2022-12-13T03:40:09;12.10;;;9.30;;
51525;SDS011;37611;51.794;21.590;2022-12-13T03:44:11;12.50;;;9.50;;
51525;SDS011;37611;51.794;21.590;2022-12-13T03:48:13;13.10;;;9.50;;
51525;SDS011;37611;51.794;21.590;2022-12-13T03:52:16;12.90;;;9.00;;
51525;SDS011;37611;51.794;21.590;2022-12-13T03:56:17;14.10;;;10.20;;
51525;SDS011;37611;51.794;21.590;2022-12-13T04:00:19;15.10;;;11.90;;
51525;SDS011;37611;51.794;21.590;2022-12-13T04:04:22;14.00;;;11.00;;
51525;SDS011;37611;51.794;21.590;2022-12-13T04:08:23;15.00;;;11.00;;
51525;SDS011;37611;51.794;21.590;2022-12-13T04:12:25;14.40;;;10.50;;
51525;SDS011;37611;51.794;21.590;2022-12-13T04:16:46;11.90;;;9.80;;
51525;SDS011;37611;51.794;21.590;2022-12-13T04:20:48;12.30;;;10.80;;
51525;SDS011;37611;51.794;21.590;2022-12-13T04:24:50;15.60;;;11.30;;
51525;SDS011;37611;51.794;21.590;2022-12-13T04:28:52;16.90;;;11.60;;
51525;SDS011;37611;51.794;21.590;2022-12-13T04:32:54;17.40;;;12.30;;
51525;SDS011;37611;51.794;21.590;2022-12-13T04:36:57;14.40;;;12.70;;
51525;SDS011;37611;51.794;21.590;2022-12-13T04:41:05;14.30;;;11.20;;
51525;SDS011;37611;51.794;21.590;2022-12-13T04:45:08;14.10;;;11.30;;
51525;SDS011;37611;51.794;21.590;2022-12-13T04:49:15;12.40;;;10.10;;
51525;SDS011;37611;51.794;21.590;2022-12-13T04:53:17;16.90;;;11.90;;
51525;SDS011;37611;51.794;21.590;2022-12-13T04:57:18;14.40;;;11.60;;
51525;SDS011;37611;51.794;21.590;2022-12-13T05:01:20;14.50;;;12.30;;
51525;SDS011;37611;51.794;21.590;2022-12-13T05:05:22;15.20;;;11.70;;
51525;SDS011;37611;51.794;21.590;2022-12-13T05:09:24;14.90;;;12.70;;
51525;SDS011;37611;51.794;21.590;2022-12-13T05:13:26;17.70;;;12.80;;
51525;SDS011;37611;51.794;21.590;2022-12-13T05:17:28;17.10;;;12.40;;
51525;SDS011;37611;51.794;21.590;2022-12-13T05:21:29;15.00;;;13.20;;
51525;SDS011;37611;51.794;21.590;2022-12-13T05:25:31;16.50;;;13.20;;
51525;SDS011;37611;51.794;21.590;2022-12-13T05:29:34;15.90;;;11.70;;
51525;SDS011;37611;51.794;21.590;2022-12-13T05:33:37;16.30;;;12.30;;
51525;SDS011;37611;51.794;21.590;2022-12-13T05:37:39;13.40;;;10.10;;
51525;SDS011;37611;51.794;21.590;2022-12-13T05:41:41;16.20;;;12.30;;
51525;SDS011;37611;51.794;21.590;2022-12-13T05:45:43;16.60;;;12.00;;
51525;SDS011;37611;51.794;21.590;2022-12-13T05:49:44;14.80;;;12.20;;
51525;SDS011;37611;51.794;21.590;2022-12-13T05:53:46;14.20;;;12.20;;
51525;SDS011;37611;51.794;21.590;2022-12-13T05:57:48;15.40;;;13.30;;
51525;SDS011;37611;51.794;21.590;2022-12-13T06:01:50;18.50;;;13.90;;
51525;SDS011;37611;51.794;21.590;2022-12-13T06:05:51;15.10;;;11.80;;
51525;SDS011;37611;51.794;21.590;2022-12-13T06:09:53;17.10;;;13.50;;
51525;SDS011;37611;51.794;21.590;2022-12-13T06:13:55;17.00;;;12.80;;
51525;SDS011;37611;51.794;21.590;2022-12-13T06:18:00;13.00;;;10.70;;
51525;SDS011;37611;51.794;21.590;2022-12-13T06:22:02;14.20;;;10.40;;
51525;SDS011;37611;51.794;21.590;2022-12-13T06:26:04;14.90;;;12.70;;
51525;SDS011;37611;51.794;21.590;2022-12-13T06:30:07;15.10;;;12.40;;
51525;SDS011;37611;51.794;21.590;2022-12-13T06:34:10;15.50;;;13.20;;
51525;SDS011;37611;51.794;21.590;2022-12-13T06:38:12;14.80;;;12.10;;
51525;SDS011;37611;51.794;21.590;2022-12-13T06:42:15;14.50;;;11.70;;
51525;SDS011;37611;51.794;21.590;2022-12-13T06:46:18;13.50;;;11.10;;
51525;SDS011;37611;51.794;21.590;2022-12-13T06:50:20;14.90;;;11.00;;
51525;SDS011;37611;51.794;21.590;2022-12-13T06:54:21;16.40;;;12.80;;
51525;SDS011;37611;51.794;21.590;2022-12-13T06:58:23;14.20;;;12.10;;
51525;SDS011;37611;51.794;21.590;2022-12-13T07:02:25;13.50;;;12.00;;
51525;SDS011;37611;51.794;21.590;2022-12-13T07:06:28;16.40;;;13.30;;
51525;SDS011;37611;51.794;21.590;2022-12-13T07:10:33;13.90;;;12.00;;
51525;SDS011;37611;51.794;21.590;2022-12-13T07:14:38;13.00;;;11.50;;
51525;SDS011;37611;51.794;21.590;2022-12-13T07:18:40;14.70;;;10.60;;
51525;SDS011;37611;51.794;21.590;2022-12-13T07:22:42;20.00;;;14.50;;
51525;SDS011;37611;51.794;21.590;2022-12-13T07:26:45;108.20;;;56.80;;
51525;SDS011;37611;51.794;21.590;2022-12-13T07:30:47;23.00;;;17.70;;
51525;SDS011;37611;51.794;21.590;2022-12-13T07:34:50;18.80;;;15.00;;
51525;SDS011;37611;51.794;21.590;2022-12-13T07:38:55;17.20;;;15.40;;
51525;SDS011;37611;51.794;21.590;2022-12-13T07:42:58;14.20;;;12.70;;
51525;SDS011;37611;51.794;21.590;2022-12-13T07:47:00;15.20;;;12.40;;
51525;SDS011;37611;51.794;21.590;2022-12-13T07:51:03;14.00;;;12.10;;
51525;SDS011;37611;51.794;21.590;2022-12-13T07:55:07;24.10;;;18.60;;
51525;SDS011;37611;51.794;21.590;2022-12-13T07:59:09;14.50;;;12.80;;
51525;SDS011;37611;51.794;21.590;2022-12-13T08:03:11;12.90;;;10.10;;
51525;SDS011;37611;51.794;21.590;2022-12-13T08:07:14;19.30;;;15.20;;
51525;SDS011;37611;51.794;21.590;2022-12-13T08:11:16;11.90;;;10.10;;
51525;SDS011;37611;51.794;21.590;2022-12-13T08:15:18;15.40;;;12.40;;
51525;SDS011;37611;51.794;21.590;2022-12-13T08:19:19;13.50;;;10.50;;
51525;SDS011;37611;51.794;21.590;2022-12-13T08:23:21;13.10;;;11.00;;
51525;SDS011;37611;51.794;21.590;2022-12-13T08:27:23;11.30;;;9.70;;
51525;SDS011;37611;51.794;21.590;2022-12-13T08:31:25;11.00;;;9.40;;
51525;SDS011;37611;51.794;21.590;2022-12-13T08:35:27;11.50;;;10.00;;
51525;SDS011;37611;51.794;21.590;2022-12-13T08:39:29;14.30;;;11.00;;
51525;SDS011;37611;51.794;21.590;2022-12-13T08:43:35;11.70;;;9.70;;
51525;SDS011;37611;51.794;21.590;2022-12-13T08:47:37;10.60;;;8.60;;
51525;SDS011;37611;51.794;21.590;2022-12-13T08:51:39;19.30;;;12.90;;
51525;SDS011;37611;51.794;21.590;2022-12-13T08:55:40;11.80;;;9.40;;
51525;SDS011;37611;51.794;21.590;2022-12-13T08:59:42;13.50;;;9.50;;
51525;SDS011;37611;51.794;21.590;2022-12-13T09:03:44;11.40;;;9.50;;
51525;SDS011;37611;51.794;21.590;2022-12-13T09:07:46;10.40;;;8.70;;
51525;SDS011;37611;51.794;21.590;2022-12-13T09:11:47;11.10;;;9.90;;
51525;SDS011;37611;51.794;21.590;2022-12-13T09:15:49;10.30;;;8.90;;
51525;SDS011;37611;51.794;21.590;2022-12-13T09:19:51;7.70;;;6.10;;
51525;SDS011;37611;51.794;21.590;2022-12-13T09:23:54;13.20;;;9.40;;
51525;SDS011;37611;51.794;21.590;2022-12-13T09:27:55;16.30;;;13.00;;
51525;SDS011;37611;51.794;21.590;2022-12-13T09:31:57;15.60;;;10.50;;
51525;SDS011;37611;51.794;21.590;2022-12-13T09:36:01;13.20;;;10.70;;
51525;SDS011;37611;51.794;21.590;2022-12-13T09:40:06;12.80;;;11.40;;
51525;SDS011;37611;51.794;21.590;2022-12-13T09:44:28;12.30;;;10.00;;
51525;SDS011;37611;51.794;21.590;2022-12-13T09:48:33;12.90;;;10.20;;
51525;SDS011;37611;51.794;21.590;2022-12-13T09:52:37;10.90;;;9.70;;
51525;SDS011;37611;51.794;21.590;2022-12-13T09:56:41;14.60;;;11.40;;
51525;SDS011;37611;51.794;21.590;2022-12-13T10:00:43;14.30;;;11.90;;
51525;SDS011;37611;51.794;21.590;2022-12-13T10:04:47;28.00;;;24.00;;
51525;SDS011;37611;51.794;21.590;2022-12-13T10:08:53;22.30;;;17.60;;
51525;SDS011;37611;51.794;21.590;2022-12-13T10:13:02;17.50;;;15.70;;
51525;SDS011;37611;51.794;21.590;2022-12-13T10:17:15;14.80;;;13.30;;
51525;SDS011;37611;51.794;21.590;2022-12-13T10:21:35;13.90;;;12.40;;
51525;SDS011;37611;51.794;21.590;2022-12-13T10:25:58;14.30;;;11.50;;
51525;SDS011;37611;51.794;21.590;2022-12-13T10:30:07;12.70;;;10.80;;
51525;SDS011;37611;51.794;21.590;2022-12-13T10:38:25;12.70;;;11.20;;
51525;SDS011;37611;51.794;21.590;2022-12-13T10:42:29;18.80;;;15.30;;
51525;SDS011;37611;51.794;21.590;2022-12-13T10:46:31;13.40;;;11.70;;
51525;SDS011;37611;51.794;21.590;2022-12-13T10:50:33;32.80;;;20.10;;
51525;SDS011;37611;51.794;21.590;2022-12-13T10:54:35;20.40;;;14.20;;
51525;SDS011;37611;51.794;21.590;2022-12-13T10:58:40;19.40;;;15.10;;
51525;SDS011;37611;51.794;21.590;2022-12-13T11:02:43;17.40;;;14.50;;
51525;SDS011;37611;51.794;21.590;2022-12-13T11:06:56;17.50;;;13.90;;
51525;SDS011;37611;51.794;21.590;2022-12-13T11:11:03;22.10;;;16.90;;
51525;SDS011;37611;51.794;21.590;2022-12-13T11:15:07;17.20;;;14.50;;
51525;SDS011;37611;51.794;21.590;2022-12-13T11:19:21;16.10;;;14.00;;
51525;SDS011;37611;51.794;21.590;2022-12-13T11:23:44;13.50;;;11.50;;
51525;SDS011;37611;51.794;21.590;2022-12-13T11:40:52;16.50;;;12.60;;
51525;SDS011;37611;51.794;21.590;2022-12-13T11:45:21;53.80;;;46.00;;
51525;SDS011;37611;51.794;21.590;2022-12-13T11:49:31;19.80;;;17.30;;
51525;SDS011;37611;51.794;21.590;2022-12-13T12:06:12;19.10;;;15.10;;
51525;SDS011;37611;51.794;21.590;2022-12-13T12:10:35;45.70;;;33.80;;
51525;SDS011;37611;51.794;21.590;2022-12-13T12:14:47;34.50;;;28.20;;
51525;SDS011;37611;51.794;21.590;2022-12-13T12:18:57;20.70;;;16.20;;
51525;SDS011;37611;51.794;21.590;2022-12-13T12:23:07;20.60;;;17.70;;
51525;SDS011;37611;51.794;21.590;2022-12-13T12:40:42;39.70;;;27.30;;
51525;SDS011;37611;51.794;21.590;2022-12-13T12:57:22;24.80;;;20.50;;
51525;SDS011;37611;51.794;21.590;2022-12-13T13:05:34;18.60;;;16.60;;
51525;SDS011;37611;51.794;21.590;2022-12-13T13:09:45;28.30;;;24.30;;
51525;SDS011;37611;51.794;21.590;2022-12-13T13:13:51;32.40;;;29.10;;
51525;SDS011;37611;51.794;21.590;2022-12-13T13:18:01;64.20;;;42.70;;
51525;SDS011;37611;51.794;21.590;2022-12-13T13:22:03;15.00;;;12.20;;
51525;SDS011;37611;51.794;21.590;2022-12-13T13:26:06;22.90;;;16.30;;
51525;SDS011;37611;51.794;21.590;2022-12-13T13:30:16;48.60;;;37.10;;
51525;SDS011;37611;51.794;21.590;2022-12-13T13:34:23;36.10;;;22.50;;
51525;SDS011;37611;51.794;21.590;2022-12-13T13:38:48;30.00;;;20.00;;
51525;SDS011;37611;51.794;21.590;2022-12-13T14:26:26;40.60;;;26.30;;
51525;SDS011;37611;51.794;21.590;2022-12-13T14:30:31;27.30;;;20.10;;
51525;SDS011;37611;51.794;21.590;2022-12-13T14:34:33;39.00;;;26.40;;
51525;SDS011;37611;51.794;21.590;2022-12-13T14:38:36;34.80;;;25.30;;
51525;SDS011;37611;51.794;21.590;2022-12-13T14:42:40;23.50;;;18.40;;
51525;SDS011;37611;51.794;21.590;2022-12-13T14:46:49;34.20;;;23.10;;
51525;SDS011;37611;51.794;21.590;2022-12-13T14:50:52;29.10;;;21.20;;
51525;SDS011;37611;51.794;21.590;2022-12-13T14:54:55;27.80;;;19.00;;
51525;SDS011;37611;51.794;21.590;2022-12-13T14:59:00;22.10;;;16.50;;
51525;SDS011;37611;51.794;21.590;2022-12-13T15:03:05;28.60;;;22.10;;
51525;SDS011;37611;51.794;21.590;2022-12-13T15:07:11;20.50;;;15.70;;
51525;SDS011;37611;51.794;21.590;2022-12-13T15:11:21;24.30;;;17.30;;
51525;SDS011;37611;51.794;21.590;2022-12-13T15:19:40;32.20;;;22.30;;
51525;SDS011;37611;51.794;21.590;2022-12-13T15:23:44;40.30;;;29.80;;
51525;SDS011;37611;51.794;21.590;2022-12-13T15:27:46;37.70;;;25.50;;
51525;SDS011;37611;51.794;21.590;2022-12-13T15:31:51;40.80;;;24.50;;
51525;SDS011;37611;51.794;21.590;2022-12-13T15:40:11;35.10;;;19.50;;
51525;SDS011;37611;51.794;21.590;2022-12-13T15:48:24;104.50;;;69.00;;
51525;SDS011;37611;51.794;21.590;2022-12-13T15:52:36;65.20;;;39.50;;
51525;SDS011;37611;51.794;21.590;2022-12-13T15:56:54;46.60;;;28.80;;
51525;SDS011;37611;51.794;21.590;2022-12-13T16:01:02;55.70;;;31.50;;
51525;SDS011;37611;51.794;21.590;2022-12-13T16:05:07;64.10;;;38.60;;
51525;SDS011;37611;51.794;21.590;2022-12-13T16:09:14;52.70;;;40.70;;
51525;SDS011;37611;51.794;21.590;2022-12-13T16:13:29;53.10;;;34.50;;
51525;SDS011;37611;51.794;21.590;2022-12-13T16:17:33;41.20;;;24.30;;
51525;SDS011;37611;51.794;21.590;2022-12-13T16:21:36;31.60;;;22.20;;
51525;SDS011;37611;51.794;21.590;2022-12-13T16:25:37;44.70;;;28.40;;
51525;SDS011;37611;51.794;21.590;2022-12-13T16:29:39;55.10;;;34.00;;
51525;SDS011;37611;51.794;21.590;2022-12-13T16:33:41;66.30;;;46.20;;
51525;SDS011;37611;51.794;21.590;2022-12-13T16:37:44;49.30;;;31.80;;
51525;SDS011;37611;51.794;21.590;2022-12-13T16:41:45;42.80;;;29.70;;
51525;SDS011;37611;51.794;21.590;2022-12-13T16:45:48;56.50;;;36.10;;
51525;SDS011;37611;51.794;21.590;2022-12-13T16:49:52;55.50;;;36.80;;
51525;SDS011;37611;51.794;21.590;2022-12-13T16:53:54;56.60;;;32.70;;
51525;SDS011;37611;51.794;21.590;2022-12-13T16:57:56;60.60;;;34.30;;
51525;SDS011;37611;51.794;21.590;2022-12-13T17:02:00;47.40;;;28.80;;
51525;SDS011;37611;51.794;21.590;2022-12-13T17:06:01;33.80;;;23.60;;
51525;SDS011;37611;51.794;21.590;2022-12-13T17:10:04;36.00;;;24.70;;
51525;SDS011;37611;51.794;21.590;2022-12-13T17:14:07;42.00;;;26.30;;
51525;SDS011;37611;51.794;21.590;2022-12-13T17:18:09;48.50;;;28.10;;
51525;SDS011;37611;51.794;21.590;2022-12-13T17:22:11;54.40;;;30.80;;
51525;SDS011;37611;51.794;21.590;2022-12-13T17:26:13;50.20;;;27.80;;
51525;SDS011;37611;51.794;21.590;2022-12-13T17:30:15;49.40;;;29.10;;
51525;SDS011;37611;51.794;21.590;2022-12-13T17:34:18;51.80;;;29.00;;
51525;SDS011;37611;51.794;21.590;2022-12-13T17:38:20;179.30;;;118.70;;
51525;SDS011;37611;51.794;21.590;2022-12-13T17:42:22;67.00;;;42.50;;
51525;SDS011;37611;51.794;21.590;2022-12-13T17:46:24;43.90;;;26.80;;
51525;SDS011;37611;51.794;21.590;2022-12-13T17:50:26;43.20;;;28.30;;
51525;SDS011;37611;51.794;21.590;2022-12-13T17:54:28;53.30;;;32.30;;
51525;SDS011;37611;51.794;21.590;2022-12-13T17:58:30;43.70;;;27.10;;
51525;SDS011;37611;51.794;21.590;2022-12-13T18:02:32;40.60;;;29.30;;
51525;SDS011;37611;51.794;21.590;2022-12-13T18:06:38;41.60;;;25.30;;
51525;SDS011;37611;51.794;21.590;2022-12-13T18:10:41;45.80;;;28.00;;
51525;SDS011;37611;51.794;21.590;2022-12-13T18:14:42;50.70;;;32.40;;
51525;SDS011;37611;51.794;21.590;2022-12-13T18:18:44;52.40;;;34.60;;
51525;SDS011;37611;51.794;21.590;2022-12-13T18:22:46;50.90;;;34.10;;
51525;SDS011;37611;51.794;21.590;2022-12-13T18:26:49;58.80;;;36.60;;
51525;SDS011;37611;51.794;21.590;2022-12-13T18:30:52;64.60;;;43.30;;
51525;SDS011;37611;51.794;21.590;2022-12-13T18:34:56;69.90;;;46.30;;
51525;SDS011;37611;51.794;21.590;2022-12-13T18:38:58;65.50;;;43.10;;
51525;SDS011;37611;51.794;21.590;2022-12-13T18:43:00;89.00;;;57.70;;
51525;SDS011;37611;51.794;21.590;2022-12-13T18:47:02;76.00;;;45.90;;
51525;SDS011;37611;51.794;21.590;2022-12-13T18:51:05;46.80;;;32.60;;
51525;SDS011;37611;51.794;21.590;2022-12-13T18:55:09;52.80;;;34.70;;
51525;SDS011;37611;51.794;21.590;2022-12-13T18:59:10;56.20;;;40.20;;
51525;SDS011;37611;51.794;21.590;2022-12-13T19:03:12;43.10;;;28.60;;
51525;SDS011;37611;51.794;21.590;2022-12-13T19:07:14;36.90;;;24.10;;
51525;SDS011;37611;51.794;21.590;2022-12-13T19:11:17;39.40;;;26.90;;
51525;SDS011;37611;51.794;21.590;2022-12-13T19:15:19;33.50;;;24.50;;
51525;SDS011;37611;51.794;21.590;2022-12-13T19:19:22;35.20;;;23.50;;
51525;SDS011;37611;51.794;21.590;2022-12-13T19:23:24;44.00;;;29.60;;
51525;SDS011;37611;51.794;21.590;2022-12-13T19:27:26;51.50;;;34.40;;
51525;SDS011;37611;51.794;21.590;2022-12-13T19:31:28;55.60;;;36.40;;
51525;SDS011;37611;51.794;21.590;2022-12-13T19:35:30;65.90;;;42.40;;
51525;SDS011;37611;51.794;21.590;2022-12-13T19:39:31;50.20;;;32.60;;
51525;SDS011;37611;51.794;21.590;2022-12-13T19:43:33;51.10;;;32.30;;
51525;SDS011;37611;51.794;21.590;2022-12-13T19:47:35;41.80;;;27.50;;
51525;SDS011;37611;51.794;21.590;2022-12-13T19:51:37;34.30;;;24.60;;
51525;SDS011;37611;51.794;21.590;2022-12-13T19:55:42;36.30;;;25.10;;
51525;SDS011;37611;51.794;21.590;2022-12-13T19:59:47;38.90;;;27.10;;
51525;SDS011;37611;51.794;21.590;2022-12-13T20:03:49;40.10;;;26.20;;
51525;SDS011;37611;51.794;21.590;2022-12-13T20:07:51;44.60;;;28.20;;
51525;SDS011;37611;51.794;21.590;2022-12-13T20:11:58;46.10;;;32.10;;
51525;SDS011;37611;51.794;21.590;2022-12-13T20:16:00;47.30;;;30.70;;
51525;SDS011;37611;51.794;21.590;2022-12-13T20:20:03;52.60;;;31.80;;
51525;SDS011;37611;51.794;21.590;2022-12-13T20:24:05;43.80;;;30.80;;
51525;SDS011;37611;51.794;21.590;2022-12-13T20:28:07;44.80;;;29.80;;
51525;SDS011;37611;51.794;21.590;2022-12-13T20:32:09;39.80;;;26.50;;
51525;SDS011;37611;51.794;21.590;2022-12-13T20:36:12;40.80;;;26.90;;
51525;SDS011;37611;51.794;21.590;2022-12-13T20:40:16;37.20;;;24.00;;
51525;SDS011;37611;51.794;21.590;2022-12-13T20:44:18;40.90;;;25.50;;
51525;SDS011;37611;51.794;21.590;2022-12-13T20:48:20;42.30;;;27.30;;
51525;SDS011;37611;51.794;21.590;2022-12-13T20:52:22;45.90;;;29.70;;
51525;SDS011;37611;51.794;21.590;2022-12-13T20:56:25;51.20;;;30.20;;
51525;SDS011;37611;51.794;21.590;2022-12-13T21:00:34;51.70;;;34.20;;
51525;SDS011;37611;51.794;21.590;2022-12-13T21:04:35;39.70;;;25.70;;
51525;SDS011;37611;51.794;21.590;2022-12-13T21:08:39;49.30;;;29.50;;
51525;SDS011;37611;51.794;21.590;2022-12-13T21:12:54;53.80;;;33.40;;
51525;SDS011;37611;51.794;21.590;2022-12-13T21:16:57;58.00;;;34.80;;
51525;SDS011;37611;51.794;21.590;2022-12-13T21:21:00;53.00;;;33.80;;
51525;SDS011;37611;51.794;21.590;2022-12-13T21:25:02;86.30;;;49.50;;
51525;SDS011;37611;51.794;21.590;2022-12-13T21:29:05;80.80;;;47.60;;
51525;SDS011;37611;51.794;21.590;2022-12-13T21:33:08;142.60;;;72.00;;
51525;SDS011;37611;51.794;21.590;2022-12-13T21:37:10;163.10;;;71.80;;
51525;SDS011;37611;51.794;21.590;2022-12-13T21:41:12;167.50;;;70.30;;
51525;SDS011;37611;51.794;21.590;2022-12-13T21:45:13;187.70;;;80.30;;
51525;SDS011;37611;51.794;21.590;2022-12-13T21:49:15;159.30;;;68.70;;
51525;SDS011;37611;51.794;21.590;2022-12-13T21:53:17;164.80;;;64.60;;
51525;SDS011;37611;51.794;21.590;2022-12-13T21:57:19;152.50;;;65.50;;
51525;SDS011;37611;51.794;21.590;2022-12-13T22:06:03;144.50;;;61.20;;
51525;SDS011;37611;51.794;21.590;2022-12-13T22:10:05;159.10;;;74.40;;
51525;SDS011;37611;51.794;21.590;2022-12-13T22:14:07;176.40;;;82.80;;
51525;SDS011;37611;51.794;21.590;2022-12-13T22:18:09;181.70;;;85.50;;
51525;SDS011;37611;51.794;21.590;2022-12-13T22:22:11;169.80;;;78.90;;
51525;SDS011;37611;51.794;21.590;2022-12-13T22:26:13;165.70;;;84.70;;
51525;SDS011;37611;51.794;21.590;2022-12-13T22:30:15;187.30;;;99.00;;
51525;SDS011;37611;51.794;21.590;2022-12-13T22:34:17;168.00;;;81.90;;
51525;SDS011;37611;51.794;21.590;2022-12-13T22:38:19;191.30;;;79.50;;
51525;SDS011;37611;51.794;21.590;2022-12-13T22:42:20;180.10;;;74.70;;
51525;SDS011;37611;51.794;21.590;2022-12-13T22:46:22;105.50;;;55.60;;
51525;SDS011;37611;51.794;21.590;2022-12-13T22:50:24;126.80;;;59.90;;
51525;SDS011;37611;51.794;21.590;2022-12-13T22:54:26;114.10;;;59.30;;
51525;SDS011;37611;51.794;21.590;2022-12-13T22:58:28;124.70;;;62.70;;
51525;SDS011;37611;51.794;21.590;2022-12-13T23:02:29;119.00;;;58.10;;
51525;SDS011;37611;51.794;21.590;2022-12-13T23:06:35;116.80;;;55.10;;
51525;SDS011;37611;51.794;21.590;2022-12-13T23:10:38;125.00;;;64.70;;
51525;SDS011;37611;51.794;21.590;2022-12-13T23:14:58;126.30;;;59.90;;
51525;SDS011;37611;51.794;21.590;2022-12-13T23:19:03;123.70;;;60.20;;
51525;SDS011;37611;51.794;21.590;2022-12-13T23:23:06;129.30;;;61.30;;
51525;SDS011;37611;51.794;21.590;2022-12-13T23:27:08;159.40;;;72.80;;
51525;SDS011;37611;51.794;21.590;2022-12-13T23:31:10;160.20;;;74.50;;
51525;SDS011;37611;51.794;21.590;2022-12-13T23:35:13;220.00;;;89.70;;
51525;SDS011;37611;51.794;21.590;2022-12-13T23:39:14;173.10;;;73.50;;
51525;SDS011;37611;51.794;21.590;2022-12-13T23:43:16;204.30;;;81.50;;
51525;SDS011;37611;51.794;21.590;2022-12-13T23:47:18;170.40;;;75.70;;
51525;SDS011;37611;51.794;21.590;2022-12-13T23:51:20;165.60;;;67.60;;
51525;SDS011;37611;51.794;21.590;2022-12-13T23:55:22;125.00;;;55.40;;
51525;SDS011;37611;51.794;21.590;2022-12-13T23:59:25;118.40;;;52.60;;
